sensor_id;sensor_type;location;lat;lon;timestamp;pressure;altitude;pressure_sealevel;temperature;humidity
70921;BME280;58572;48.110;19.838;2023-04-22T00:01:01;97610.72;;;10.42;57.71
70921;BME280;58572;48.110;19.838;2023-04-22T00:03:28;97594.78;;;10.59;52.83
70921;BME280;58572;48.110;19.838;2023-04-22T00:05:57;97608.56;;;10.39;57.91
70921;BME280;58572;48.110;19.838;2023-04-22T00:08:24;97612.81;;;10.50;53.68
70921;BME280;58572;48.110;19.838;2023-04-22T00:10:51;97612.88;;;10.45;56.29
70921;BME280;58572;48.110;19.838;2023-04-22T00:13:19;97610.88;;;10.27;56.98
70921;BME280;58572;48.110;19.838;2023-04-22T00:15:48;97460.47;;;9.70;53.85
70921;BME280;58572;48.110;19.838;2023-04-22T00:18:15;97607.09;;;10.51;54.99
70921;BME280;58572;48.110;19.838;2023-04-22T00:20:43;97593.06;;;10.39;55.68
70921;BME280;58572;48.110;19.838;2023-04-22T00:23:10;97609.50;;;10.29;56.81
70921;BME280;58572;48.110;19.838;2023-04-22T00:25:39;97598.28;;;10.36;53.29
70921;BME280;58572;48.110;19.838;2023-04-22T00:28:06;97605.34;;;10.61;56.23
70921;BME280;58572;48.110;19.838;2023-04-22T00:30:34;97597.38;;;10.16;57.40
70921;BME280;58572;48.110;19.838;2023-04-22T00:33:02;97600.38;;;10.44;53.67
70921;BME280;58572;48.110;19.838;2023-04-22T00:35:30;97597.88;;;10.18;56.88
70921;BME280;58572;48.110;19.838;2023-04-22T00:37:57;97602.94;;;10.01;59.89
70921;BME280;58572;48.110;19.838;2023-04-22T00:40:24;97599.59;;;10.09;58.40
70921;BME280;58572;48.110;19.838;2023-04-22T00:42:51;97600.53;;;10.00;58.77
70921;BME280;58572;48.110;19.838;2023-04-22T00:45:19;97594.69;;;10.11;55.74
70921;BME280;58572;48.110;19.838;2023-04-22T00:47:47;97595.91;;;10.00;56.77
70921;BME280;58572;48.110;19.838;2023-04-22T00:50:16;97601.63;;;9.70;59.91
70921;BME280;58572;48.110;19.838;2023-04-22T00:52:43;97595.91;;;10.00;56.13
70921;BME280;58572;48.110;19.838;2023-04-22T00:55:10;97531.38;;;9.29;59.42
70921;BME280;58572;48.110;19.838;2023-04-22T00:57:38;97591.63;;;9.94;57.49
70921;BME280;58572;48.110;19.838;2023-04-22T01:00:06;97585.47;;;10.12;55.63
70921;BME280;58572;48.110;19.838;2023-04-22T01:02:35;97569.69;;;9.56;60.04
70921;BME280;58572;48.110;19.838;2023-04-22T01:05:03;97590.88;;;10.12;55.97
70921;BME280;58572;48.110;19.838;2023-04-22T01:07:32;97588.63;;;10.19;55.16
70921;BME280;58572;48.110;19.838;2023-04-22T01:10:00;97590.66;;;9.80;58.78
70921;BME280;58572;48.110;19.838;2023-04-22T01:12:27;97589.13;;;9.69;59.48
70921;BME280;58572;48.110;19.838;2023-04-22T01:14:55;97597.28;;;9.69;56.73
70921;BME280;58572;48.110;19.838;2023-04-22T01:17:22;97588.13;;;9.88;56.93
70921;BME280;58572;48.110;19.838;2023-04-22T01:19:50;97560.06;;;9.40;59.70
70921;BME280;58572;48.110;19.838;2023-04-22T01:22:17;97595.03;;;9.76;56.86
70921;BME280;58572;48.110;19.838;2023-04-22T01:24:46;97562.31;;;9.28;60.75
70921;BME280;58572;48.110;19.838;2023-04-22T01:27:14;97591.09;;;9.63;59.36
70921;BME280;58572;48.110;19.838;2023-04-22T01:29:41;97596.66;;;9.77;58.08
70921;BME280;58572;48.110;19.838;2023-04-22T01:32:08;97599.09;;;9.44;60.97
70921;BME280;58572;48.110;19.838;2023-04-22T01:34:36;97597.72;;;9.81;56.00
70921;BME280;58572;48.110;19.838;2023-04-22T01:37:03;97598.94;;;9.65;56.49
70921;BME280;58572;48.110;19.838;2023-04-22T01:39:30;97601.63;;;9.31;61.33
70921;BME280;58572;48.110;19.838;2023-04-22T01:41:59;97599.56;;;9.56;57.96
70921;BME280;58572;48.110;19.838;2023-04-22T01:44:26;97596.44;;;9.73;56.73
70921;BME280;58572;48.110;19.838;2023-04-22T01:46:54;97594.41;;;9.55;60.60
70921;BME280;58572;48.110;19.838;2023-04-22T01:49:21;97592.13;;;9.96;54.32
70921;BME280;58572;48.110;19.838;2023-04-22T01:51:48;97592.28;;;9.81;56.61
70921;BME280;58572;48.110;19.838;2023-04-22T01:54:15;97589.38;;;9.72;58.61
70921;BME280;58572;48.110;19.838;2023-04-22T01:56:49;97586.88;;;9.47;59.32
70921;BME280;58572;48.110;19.838;2023-04-22T01:59:18;97574.66;;;9.49;57.44
70921;BME280;58572;48.110;19.838;2023-04-22T02:01:46;97588.69;;;9.56;57.50
70921;BME280;58572;48.110;19.838;2023-04-22T02:04:13;97582.81;;;9.78;55.65
70921;BME280;58572;48.110;19.838;2023-04-22T02:06:40;97591.03;;;9.29;61.10
70921;BME280;58572;48.110;19.838;2023-04-22T02:09:07;97586.88;;;9.47;59.50
70921;BME280;58572;48.110;19.838;2023-04-22T02:11:35;97587.56;;;9.63;58.15
70921;BME280;58572;48.110;19.838;2023-04-22T02:14:02;97589.34;;;9.43;59.20
70921;BME280;58572;48.110;19.838;2023-04-22T02:16:31;97589.38;;;9.38;55.92
70921;BME280;58572;48.110;19.838;2023-04-22T02:18:58;97472.75;;;8.65;58.40
70921;BME280;58572;48.110;19.838;2023-04-22T02:21:27;97590.03;;;9.59;56.35
70921;BME280;58572;48.110;19.838;2023-04-22T02:23:56;97580.16;;;9.39;56.61
70921;BME280;58572;48.110;19.838;2023-04-22T02:26:23;97584.25;;;9.37;58.11
70921;BME280;58572;48.110;19.838;2023-04-22T02:28:51;97586.75;;;9.23;60.05
70921;BME280;58572;48.110;19.838;2023-04-22T02:31:18;97546.19;;;9.08;58.84
70921;BME280;58572;48.110;19.838;2023-04-22T02:33:46;97547.88;;;9.38;55.82
70921;BME280;58572;48.110;19.838;2023-04-22T02:36:13;97587.41;;;9.49;55.78
70921;BME280;58572;48.110;19.838;2023-04-22T02:38:40;97588.16;;;9.54;55.26
70921;BME280;58572;48.110;19.838;2023-04-22T02:41:07;97593.75;;;9.29;57.58
70921;BME280;58572;48.110;19.838;2023-04-22T02:43:35;97582.34;;;9.32;58.29
70921;BME280;58572;48.110;19.838;2023-04-22T02:46:02;97593.66;;;9.05;60.54
70921;BME280;58572;48.110;19.838;2023-04-22T02:48:29;97582.97;;;9.19;59.30
70921;BME280;58572;48.110;19.838;2023-04-22T02:50:57;97589.47;;;9.23;57.03
70921;BME280;58572;48.110;19.838;2023-04-22T02:53:24;97589.56;;;9.08;58.21
70921;BME280;58572;48.110;19.838;2023-04-22T02:55:52;97585.13;;;8.78;61.16
70921;BME280;58572;48.110;19.838;2023-04-22T02:58:20;97591.56;;;8.92;62.10
70921;BME280;58572;48.110;19.838;2023-04-22T03:00:47;97590.53;;;8.78;61.18
70921;BME280;58572;48.110;19.838;2023-04-22T03:03:14;97591.91;;;8.75;62.04
70921;BME280;58572;48.110;19.838;2023-04-22T03:05:41;97591.34;;;8.78;62.31
70921;BME280;58572;48.110;19.838;2023-04-22T03:08:10;97590.63;;;9.12;61.59
70921;BME280;58572;48.110;19.838;2023-04-22T03:10:37;97590.50;;;8.88;62.12
70921;BME280;58572;48.110;19.838;2023-04-22T03:13:04;97589.69;;;8.87;63.05
70921;BME280;58572;48.110;19.838;2023-04-22T03:15:31;97592.94;;;8.89;62.03
70921;BME280;58572;48.110;19.838;2023-04-22T03:17:59;97592.53;;;9.11;58.72
70921;BME280;58572;48.110;19.838;2023-04-22T03:20:26;97589.06;;;9.01;59.58
70921;BME280;58572;48.110;19.838;2023-04-22T03:22:53;97600.03;;;8.80;60.20
70921;BME280;58572;48.110;19.838;2023-04-22T03:25:21;97588.56;;;8.93;60.14
70921;BME280;58572;48.110;19.838;2023-04-22T03:27:48;97585.94;;;9.22;57.94
70921;BME280;58572;48.110;19.838;2023-04-22T03:30:16;97596.91;;;9.02;60.15
70921;BME280;58572;48.110;19.838;2023-04-22T03:32:43;97593.94;;;9.04;59.60
70921;BME280;58572;48.110;19.838;2023-04-22T03:35:10;97588.84;;;8.92;58.35
70921;BME280;58572;48.110;19.838;2023-04-22T03:37:37;97598.97;;;8.76;60.69
70921;BME280;58572;48.110;19.838;2023-04-22T03:40:06;97596.09;;;9.02;60.38
70921;BME280;58572;48.110;19.838;2023-04-22T03:42:35;97591.31;;;8.88;61.58
70921;BME280;58572;48.110;19.838;2023-04-22T03:45:03;97461.09;;;8.00;58.13
70921;BME280;58572;48.110;19.838;2023-04-22T03:47:30;97599.31;;;9.09;59.87
70921;BME280;58572;48.110;19.838;2023-04-22T03:49:57;97600.41;;;9.08;57.81
70921;BME280;58572;48.110;19.838;2023-04-22T03:52:25;97604.97;;;9.17;57.83
70921;BME280;58572;48.110;19.838;2023-04-22T03:54:52;97604.41;;;9.20;60.18
70921;BME280;58572;48.110;19.838;2023-04-22T03:57:19;97600.44;;;9.03;58.88
70921;BME280;58572;48.110;19.838;2023-04-22T03:59:48;97611.13;;;9.28;60.40
70921;BME280;58572;48.110;19.838;2023-04-22T04:02:15;97599.59;;;9.51;57.41
70921;BME280;58572;48.110;19.838;2023-04-22T04:04:42;97599.88;;;9.50;57.63
70921;BME280;58572;48.110;19.838;2023-04-22T04:07:09;97604.44;;;9.54;56.40
70921;BME280;58572;48.110;19.838;2023-04-22T04:09:36;97607.44;;;9.09;61.66
70921;BME280;58572;48.110;19.838;2023-04-22T04:12:03;97607.53;;;9.43;58.60
70921;BME280;58572;48.110;19.838;2023-04-22T04:14:31;97560.44;;;8.79;62.21
70921;BME280;58572;48.110;19.838;2023-04-22T04:16:59;97612.63;;;9.05;57.88
70921;BME280;58572;48.110;19.838;2023-04-22T04:19:28;97620.38;;;9.22;56.83
70921;BME280;58572;48.110;19.838;2023-04-22T04:21:55;97614.50;;;9.10;61.69
70921;BME280;58572;48.110;19.838;2023-04-22T04:24:22;97621.13;;;8.88;64.10
70921;BME280;58572;48.110;19.838;2023-04-22T04:26:49;97617.75;;;9.12;62.07
70921;BME280;58572;48.110;19.838;2023-04-22T04:29:16;97619.28;;;9.23;58.51
70921;BME280;58572;48.110;19.838;2023-04-22T04:31:46;97619.84;;;9.20;61.22
70921;BME280;58572;48.110;19.838;2023-04-22T04:34:14;97628.47;;;9.37;59.50
70921;BME280;58572;48.110;19.838;2023-04-22T04:36:43;97560.97;;;8.86;59.44
70921;BME280;58572;48.110;19.838;2023-04-22T04:39:11;97624.16;;;9.26;59.83
70921;BME280;58572;48.110;19.838;2023-04-22T04:41:38;97627.13;;;9.29;59.92
70921;BME280;58572;48.110;19.838;2023-04-22T04:44:05;97647.59;;;9.07;62.89
70921;BME280;58572;48.110;19.838;2023-04-22T04:46:32;97631.72;;;9.29;60.08
70921;BME280;58572;48.110;19.838;2023-04-22T04:49:02;97634.91;;;9.46;59.63
70921;BME280;58572;48.110;19.838;2023-04-22T04:51:31;97642.59;;;9.29;61.56
70921;BME280;58572;48.110;19.838;2023-04-22T04:53:58;97631.09;;;9.47;59.84
70921;BME280;58572;48.110;19.838;2023-04-22T04:56:25;97633.34;;;9.74;56.51
70921;BME280;58572;48.110;19.838;2023-04-22T04:58:52;97633.66;;;9.68;57.89
70921;BME280;58572;48.110;19.838;2023-04-22T05:01:19;97630.28;;;9.81;59.47
70921;BME280;58572;48.110;19.838;2023-04-22T05:03:47;97638.22;;;9.72;60.34
70921;BME280;58572;48.110;19.838;2023-04-22T05:06:14;97599.44;;;9.72;58.89
70921;BME280;58572;48.110;19.838;2023-04-22T05:08:42;97639.69;;;9.93;56.01
70921;BME280;58572;48.110;19.838;2023-04-22T05:11:10;97639.44;;;9.90;59.27
70921;BME280;58572;48.110;19.838;2023-04-22T05:13:37;97636.88;;;10.33;55.12
70921;BME280;58572;48.110;19.838;2023-04-22T05:16:04;97644.72;;;10.05;60.99
70921;BME280;58572;48.110;19.838;2023-04-22T05:18:31;97638.69;;;10.13;59.49
70921;BME280;58572;48.110;19.838;2023-04-22T05:20:59;97638.38;;;10.49;57.64
70921;BME280;58572;48.110;19.838;2023-04-22T05:23:30;97643.94;;;10.34;59.31
70921;BME280;58572;48.110;19.838;2023-04-22T05:25:58;97631.91;;;10.40;59.42
70921;BME280;58572;48.110;19.838;2023-04-22T05:28:25;97640.34;;;10.67;54.82
70921;BME280;58572;48.110;19.838;2023-04-22T05:30:53;97637.63;;;10.67;55.52
70921;BME280;58572;48.110;19.838;2023-04-22T05:33:20;97550.59;;;10.24;52.07
70921;BME280;58572;48.110;19.838;2023-04-22T05:35:47;97639.31;;;11.06;55.33
70921;BME280;58572;48.110;19.838;2023-04-22T05:38:15;97633.22;;;11.14;51.31
70921;BME280;58572;48.110;19.838;2023-04-22T05:40:42;97634.59;;;10.93;55.78
70921;BME280;58572;48.110;19.838;2023-04-22T05:43:11;97636.75;;;11.33;53.19
70921;BME280;58572;48.110;19.838;2023-04-22T05:45:38;97646.47;;;11.20;53.57
70921;BME280;58572;48.110;19.838;2023-04-22T05:48:05;97648.88;;;11.22;51.97
70921;BME280;58572;48.110;19.838;2023-04-22T05:50:32;97653.81;;;10.77;53.06
70921;BME280;58572;48.110;19.838;2023-04-22T05:52:59;97652.72;;;10.78;55.76
70921;BME280;58572;48.110;19.838;2023-04-22T05:55:26;97653.69;;;10.87;55.96
70921;BME280;58572;48.110;19.838;2023-04-22T05:57:54;97660.06;;;10.54;57.90
70921;BME280;58572;48.110;19.838;2023-04-22T06:00:22;97661.34;;;10.85;58.12
70921;BME280;58572;48.110;19.838;2023-04-22T06:02:49;97665.06;;;11.13;55.55
70921;BME280;58572;48.110;19.838;2023-04-22T06:05:16;97659.91;;;11.12;57.21
70921;BME280;58572;48.110;19.838;2023-04-22T06:07:43;97664.03;;;11.28;52.55
70921;BME280;58572;48.110;19.838;2023-04-22T06:10:11;97656.72;;;11.66;51.93
70921;BME280;58572;48.110;19.838;2023-04-22T06:12:38;97659.47;;;11.42;54.61
70921;BME280;58572;48.110;19.838;2023-04-22T06:15:06;97659.22;;;11.63;53.33
70921;BME280;58572;48.110;19.838;2023-04-22T06:17:35;97662.97;;;11.86;52.86
70921;BME280;58572;48.110;19.838;2023-04-22T06:20:02;97662.34;;;12.07;52.77
70921;BME280;58572;48.110;19.838;2023-04-22T06:22:29;97664.31;;;12.34;52.23
70921;BME280;58572;48.110;19.838;2023-04-22T06:24:56;97672.97;;;12.23;52.94
70921;BME280;58572;48.110;19.838;2023-04-22T06:27:23;97660.16;;;12.69;50.20
70921;BME280;58572;48.110;19.838;2023-04-22T06:29:51;97654.28;;;12.76;48.38
70921;BME280;58572;48.110;19.838;2023-04-22T06:32:17;97615.88;;;12.45;50.72
70921;BME280;58572;48.110;19.838;2023-04-22T06:34:46;97654.78;;;12.92;49.27
70921;BME280;58572;48.110;19.838;2023-04-22T06:37:13;97654.69;;;13.24;48.33
70921;BME280;58572;48.110;19.838;2023-04-22T06:39:40;97659.63;;;13.72;45.50
70921;BME280;58572;48.110;19.838;2023-04-22T06:42:08;97655.78;;;13.95;44.51
70921;BME280;58572;48.110;19.838;2023-04-22T06:44:35;97655.69;;;13.28;45.80
70921;BME280;58572;48.110;19.838;2023-04-22T06:47:02;97651.56;;;13.67;47.86
70921;BME280;58572;48.110;19.838;2023-04-22T06:49:29;97652.06;;;13.91;43.95
70921;BME280;58572;48.110;19.838;2023-04-22T06:51:58;97636.53;;;13.78;43.72
70921;BME280;58572;48.110;19.838;2023-04-22T06:54:25;97649.72;;;14.83;42.00
70921;BME280;58572;48.110;19.838;2023-04-22T06:56:51;97651.97;;;14.50;44.02
70921;BME280;58572;48.110;19.838;2023-04-22T06:59:18;97652.09;;;14.76;43.13
70921;BME280;58572;48.110;19.838;2023-04-22T07:01:45;97653.75;;;14.54;44.79
70921;BME280;58572;48.110;19.838;2023-04-22T07:04:12;97634.53;;;15.25;42.40
70921;BME280;58572;48.110;19.838;2023-04-22T07:06:39;97650.53;;;15.57;37.30
70921;BME280;58572;48.110;19.838;2023-04-22T07:09:08;97656.28;;;15.21;40.89
70921;BME280;58572;48.110;19.838;2023-04-22T07:11:35;97653.72;;;15.33;42.21
70921;BME280;58572;48.110;19.838;2023-04-22T07:14:02;97654.94;;;15.67;40.86
70921;BME280;58572;48.110;19.838;2023-04-22T07:16:29;97651.56;;;15.70;39.78
70921;BME280;58572;48.110;19.838;2023-04-22T07:18:56;97651.63;;;16.34;36.77
70921;BME280;58572;48.110;19.838;2023-04-22T07:21:23;97652.91;;;16.37;40.69
70921;BME280;58572;48.110;19.838;2023-04-22T07:23:50;97648.66;;;16.56;38.44
70921;BME280;58572;48.110;19.838;2023-04-22T07:26:19;97652.84;;;17.09;37.59
70921;BME280;58572;48.110;19.838;2023-04-22T07:28:46;97643.25;;;17.45;33.00
70921;BME280;58572;48.110;19.838;2023-04-22T07:31:13;97642.44;;;17.23;34.32
70921;BME280;58572;48.110;19.838;2023-04-22T07:33:40;97648.97;;;17.10;33.95
70921;BME280;58572;48.110;19.838;2023-04-22T07:36:07;97646.59;;;17.80;33.09
70921;BME280;58572;48.110;19.838;2023-04-22T07:38:34;97645.34;;;18.43;36.01
70921;BME280;58572;48.110;19.838;2023-04-22T07:41:01;97649.94;;;18.85;35.50
70921;BME280;58572;48.110;19.838;2023-04-22T07:43:30;97642.47;;;19.46;33.46
70921;BME280;58572;48.110;19.838;2023-04-22T07:45:57;97640.66;;;19.26;33.25
70921;BME280;58572;48.110;19.838;2023-04-22T07:48:24;97650.75;;;19.09;34.64
70921;BME280;58572;48.110;19.838;2023-04-22T07:50:51;97576.84;;;18.75;31.66
70921;BME280;58572;48.110;19.838;2023-04-22T07:53:18;97648.22;;;18.80;32.03
70921;BME280;58572;48.110;19.838;2023-04-22T07:55:45;97647.59;;;18.62;32.73
70921;BME280;58572;48.110;19.838;2023-04-22T07:58:14;97649.25;;;19.36;30.70
70921;BME280;58572;48.110;19.838;2023-04-22T08:00:42;97653.19;;;20.00;31.86
70921;BME280;58572;48.110;19.838;2023-04-22T08:03:09;97655.22;;;18.44;31.41
70921;BME280;58572;48.110;19.838;2023-04-22T08:05:36;97653.47;;;18.40;28.96
70921;BME280;58572;48.110;19.838;2023-04-22T08:08:04;97505.13;;;17.90;30.13
70921;BME280;58572;48.110;19.838;2023-04-22T08:10:31;97648.19;;;19.77;30.11
70921;BME280;58572;48.110;19.838;2023-04-22T08:12:58;97637.16;;;21.24;31.02
70921;BME280;58572;48.110;19.838;2023-04-22T08:15:25;97649.31;;;18.22;29.55
70921;BME280;58572;48.110;19.838;2023-04-22T08:17:54;97642.63;;;20.46;32.52
70921;BME280;58572;48.110;19.838;2023-04-22T08:20:21;97619.56;;;20.54;32.88
70921;BME280;58572;48.110;19.838;2023-04-22T08:22:48;97640.00;;;21.12;31.52
70921;BME280;58572;48.110;19.838;2023-04-22T08:25:21;97652.28;;;19.96;28.77
70921;BME280;58572;48.110;19.838;2023-04-22T08:27:48;97642.06;;;20.99;28.85
70921;BME280;58572;48.110;19.838;2023-04-22T08:30:15;97641.44;;;20.90;31.75
70921;BME280;58572;48.110;19.838;2023-04-22T08:32:43;97650.81;;;21.33;31.39
70921;BME280;58572;48.110;19.838;2023-04-22T08:35:11;97647.06;;;21.25;31.80
70921;BME280;58572;48.110;19.838;2023-04-22T08:37:39;97657.34;;;20.50;28.99
70921;BME280;58572;48.110;19.838;2023-04-22T08:40:07;97655.53;;;18.64;30.12
70921;BME280;58572;48.110;19.838;2023-04-22T08:42:35;97654.88;;;19.52;31.42
70921;BME280;58572;48.110;19.838;2023-04-22T08:45:04;97658.78;;;19.39;30.09
70921;BME280;58572;48.110;19.838;2023-04-22T08:47:31;97659.81;;;19.46;31.56
70921;BME280;58572;48.110;19.838;2023-04-22T08:50:01;97618.34;;;19.55;31.85
70921;BME280;58572;48.110;19.838;2023-04-22T08:52:30;97662.41;;;19.92;32.94
70921;BME280;58572;48.110;19.838;2023-04-22T08:54:58;97660.13;;;19.82;29.24
70921;BME280;58572;48.110;19.838;2023-04-22T08:57:25;97661.78;;;19.58;31.62
70921;BME280;58572;48.110;19.838;2023-04-22T08:59:52;97660.72;;;19.51;29.72
70921;BME280;58572;48.110;19.838;2023-04-22T09:02:23;97659.19;;;21.21;28.63
70921;BME280;58572;48.110;19.838;2023-04-22T09:04:51;97655.31;;;21.57;28.09
70921;BME280;58572;48.110;19.838;2023-04-22T09:07:22;97652.97;;;21.24;30.42
70921;BME280;58572;48.110;19.838;2023-04-22T09:09:53;97653.97;;;20.72;30.16
70921;BME280;58572;48.110;19.838;2023-04-22T09:12:21;97659.94;;;20.30;28.01
70921;BME280;58572;48.110;19.838;2023-04-22T09:14:48;97661.22;;;19.53;30.33
70921;BME280;58572;48.110;19.838;2023-04-22T09:17:15;97656.81;;;19.64;31.21
70921;BME280;58572;48.110;19.838;2023-04-22T09:19:43;97652.13;;;19.52;30.84
70921;BME280;58572;48.110;19.838;2023-04-22T09:22:11;97654.88;;;18.79;29.06
70921;BME280;58572;48.110;19.838;2023-04-22T09:24:48;97653.50;;;19.22;30.84
70921;BME280;58572;48.110;19.838;2023-04-22T09:27:17;97657.13;;;18.65;28.59
70921;BME280;58572;48.110;19.838;2023-04-22T09:29:47;97650.53;;;18.12;29.24
70921;BME280;58572;48.110;19.838;2023-04-22T09:32:14;97638.41;;;21.11;29.77
70921;BME280;58572;48.110;19.838;2023-04-22T09:34:47;97638.31;;;20.76;25.73
70921;BME280;58572;48.110;19.838;2023-04-22T09:37:18;97631.22;;;22.54;26.21
70921;BME280;58572;48.110;19.838;2023-04-22T09:39:47;97641.41;;;20.75;28.27
70921;BME280;58572;48.110;19.838;2023-04-22T09:42:17;97637.06;;;21.05;29.82
70921;BME280;58572;48.110;19.838;2023-04-22T09:44:48;97639.16;;;20.49;29.54
70921;BME280;58572;48.110;19.838;2023-04-22T09:47:17;97632.97;;;20.99;29.63
70921;BME280;58572;48.110;19.838;2023-04-22T09:49:45;97631.81;;;20.84;28.99
70921;BME280;58572;48.110;19.838;2023-04-22T09:52:20;97624.66;;;20.67;29.69
70921;BME280;58572;48.110;19.838;2023-04-22T09:54:50;97612.38;;;21.12;29.74
70921;BME280;58572;48.110;19.838;2023-04-22T09:57:20;97636.66;;;20.44;30.40
70921;BME280;58572;48.110;19.838;2023-04-22T09:59:49;97623.97;;;21.02;30.74
70921;BME280;58572;48.110;19.838;2023-04-22T10:02:17;97639.53;;;20.63;28.71
70921;BME280;58572;48.110;19.838;2023-04-22T10:04:45;97620.69;;;20.96;28.13
70921;BME280;58572;48.110;19.838;2023-04-22T10:07:12;97613.28;;;22.25;27.01
70921;BME280;58572;48.110;19.838;2023-04-22T10:09:40;97607.56;;;23.02;25.21
70921;BME280;58572;48.110;19.838;2023-04-22T10:12:07;97621.31;;;22.53;25.73
70921;BME280;58572;48.110;19.838;2023-04-22T10:14:36;97605.38;;;23.15;26.02
70921;BME280;58572;48.110;19.838;2023-04-22T10:17:04;97626.19;;;21.63;25.08
70921;BME280;58572;48.110;19.838;2023-04-22T10:19:32;97612.88;;;21.33;26.12
70921;BME280;58572;48.110;19.838;2023-04-22T10:22:02;97616.28;;;21.11;26.21
70921;BME280;58572;48.110;19.838;2023-04-22T10:24:34;97619.63;;;20.85;26.98
70921;BME280;58572;48.110;19.838;2023-04-22T10:27:03;97616.28;;;20.48;27.71
70921;BME280;58572;48.110;19.838;2023-04-22T10:29:36;97618.53;;;20.30;27.43
70921;BME280;58572;48.110;19.838;2023-04-22T10:32:05;97616.66;;;20.34;28.56
70921;BME280;58572;48.110;19.838;2023-04-22T10:34:32;97617.44;;;19.91;28.61
70921;BME280;58572;48.110;19.838;2023-04-22T10:37:05;97612.44;;;20.53;28.47
70921;BME280;58572;48.110;19.838;2023-04-22T10:39:33;97549.63;;;21.86;25.70
70921;BME280;58572;48.110;19.838;2023-04-22T10:42:06;97579.63;;;22.04;26.87
70921;BME280;58572;48.110;19.838;2023-04-22T10:44:47;97561.88;;;22.73;27.79
70921;BME280;58572;48.110;19.838;2023-04-22T10:47:34;97597.19;;;22.76;23.16
70921;BME280;58572;48.110;19.838;2023-04-22T10:50:19;97584.88;;;23.76;23.27
70921;BME280;58572;48.110;19.838;2023-04-22T10:52:49;97183.16;;;22.51;22.24
70921;BME280;58572;48.110;19.838;2023-04-22T10:55:17;97571.75;;;26.04;22.22
70921;BME280;58572;48.110;19.838;2023-04-22T10:57:46;97588.72;;;23.98;22.31
70921;BME280;58572;48.110;19.838;2023-04-22T11:00:40;97591.59;;;23.48;23.48
70921;BME280;58572;48.110;19.838;2023-04-22T11:03:14;97590.09;;;22.56;24.90
70921;BME280;58572;48.110;19.838;2023-04-22T11:05:43;97593.19;;;22.09;27.71
70921;BME280;58572;48.110;19.838;2023-04-22T11:08:17;97576.91;;;25.30;25.40
70921;BME280;58572;48.110;19.838;2023-04-22T11:10:49;97575.56;;;25.68;22.85
70921;BME280;58572;48.110;19.838;2023-04-22T11:13:18;97576.13;;;24.41;23.10
70921;BME280;58572;48.110;19.838;2023-04-22T11:15:48;97576.94;;;24.41;26.81
70921;BME280;58572;48.110;19.838;2023-04-22T11:18:20;97461.41;;;23.33;26.16
70921;BME280;58572;48.110;19.838;2023-04-22T11:20:48;97582.31;;;24.64;25.03
70921;BME280;58572;48.110;19.838;2023-04-22T11:23:18;97584.41;;;24.00;23.31
70921;BME280;58572;48.110;19.838;2023-04-22T11:25:46;97582.09;;;24.43;24.19
70921;BME280;58572;48.110;19.838;2023-04-22T11:28:14;97581.25;;;24.79;23.97
70921;BME280;58572;48.110;19.838;2023-04-22T11:30:40;97592.16;;;23.31;23.35
70921;BME280;58572;48.110;19.838;2023-04-22T11:33:13;97591.31;;;23.27;26.26
70921;BME280;58572;48.110;19.838;2023-04-22T11:35:41;97589.06;;;22.87;24.92
70921;BME280;58572;48.110;19.838;2023-04-22T11:38:09;97560.41;;;22.11;26.91
70921;BME280;58572;48.110;19.838;2023-04-22T11:40:36;97587.03;;;22.61;26.58
70921;BME280;58572;48.110;19.838;2023-04-22T11:43:05;97588.22;;;20.62;27.23
70921;BME280;58572;48.110;19.838;2023-04-22T11:45:33;97582.09;;;21.89;25.55
70921;BME280;58572;48.110;19.838;2023-04-22T11:48:02;97510.06;;;22.28;25.73
70921;BME280;58572;48.110;19.838;2023-04-22T11:50:33;97576.91;;;22.72;27.85
70921;BME280;58572;48.110;19.838;2023-04-22T11:53:02;97585.31;;;22.99;26.80
70921;BME280;58572;48.110;19.838;2023-04-22T11:55:31;97573.16;;;23.33;26.62
70921;BME280;58572;48.110;19.838;2023-04-22T11:58:00;97573.19;;;24.67;24.67
70921;BME280;58572;48.110;19.838;2023-04-22T12:00:29;97568.81;;;25.07;24.15
70921;BME280;58572;48.110;19.838;2023-04-22T12:02:59;97569.44;;;24.93;23.13
70921;BME280;58572;48.110;19.838;2023-04-22T12:05:35;97506.69;;;24.96;23.49
70921;BME280;58572;48.110;19.838;2023-04-22T12:08:05;97566.06;;;25.10;22.94
70921;BME280;58572;48.110;19.838;2023-04-22T12:10:33;97574.94;;;24.05;24.39
70921;BME280;58572;48.110;19.838;2023-04-22T12:13:00;97577.75;;;23.78;25.34
70921;BME280;58572;48.110;19.838;2023-04-22T12:15:40;97577.91;;;23.06;26.09
70921;BME280;58572;48.110;19.838;2023-04-22T12:18:08;97581.22;;;22.89;26.11
70921;BME280;58572;48.110;19.838;2023-04-22T12:20:38;97578.09;;;22.71;26.46
70921;BME280;58572;48.110;19.838;2023-04-22T12:23:11;97579.91;;;21.09;24.81
70921;BME280;58572;48.110;19.838;2023-04-22T12:25:41;97590.28;;;20.21;24.77
70921;BME280;58572;48.110;19.838;2023-04-22T12:28:09;97580.97;;;19.98;26.31
70921;BME280;58572;48.110;19.838;2023-04-22T12:30:36;97581.47;;;19.35;26.57
70921;BME280;58572;48.110;19.838;2023-04-22T12:33:03;97579.50;;;19.60;27.15
70921;BME280;58572;48.110;19.838;2023-04-22T12:35:31;97573.00;;;21.89;28.75
70921;BME280;58572;48.110;19.838;2023-04-22T12:38:00;97583.34;;;19.31;26.84
70921;BME280;58572;48.110;19.838;2023-04-22T12:40:27;97577.88;;;19.59;27.89
70921;BME280;58572;48.110;19.838;2023-04-22T12:42:54;97567.94;;;21.56;26.19
70921;BME280;58572;48.110;19.838;2023-04-22T12:45:21;97566.72;;;21.92;27.22
70921;BME280;58572;48.110;19.838;2023-04-22T12:47:49;97567.19;;;22.59;29.10
70921;BME280;58572;48.110;19.838;2023-04-22T12:50:19;97560.81;;;22.13;27.53
70921;BME280;58572;48.110;19.838;2023-04-22T12:52:47;97559.31;;;22.61;26.99
70921;BME280;58572;48.110;19.838;2023-04-22T12:55:16;97551.94;;;23.18;27.55
70921;BME280;58572;48.110;19.838;2023-04-22T12:57:44;97557.50;;;23.48;25.69